createdAt,value
2018-03-17T00:00:34.755Z,92.26
2018-03-17T00:03:02.275Z,91.84
2018-03-17T00:05:29.810Z,91.46
2018-03-17T00:07:58.137Z,91.60
2018-03-17T00:10:25.820Z,91.63
2018-03-17T00:12:53.550Z,91.72
2018-03-17T00:15:21.792Z,90.68
2018-03-17T00:17:49.585Z,91.28
2018-03-17T00:20:17.134Z,91.10
2018-03-17T00:22:45.021Z,90.09
2018-03-17T00:25:12.762Z,90.22
2018-03-17T00:27:40.477Z,90.86
2018-03-17T00:30:08.464Z,90.58
2018-03-17T00:32:36.263Z,89.65
2018-03-17T00:35:04.233Z,89.91
2018-03-17T00:37:32.730Z,91.05
2018-03-17T00:40:00.310Z,92.87
2018-03-17T00:42:28.158Z,93.68
2018-03-17T00:44:55.739Z,93.40
2018-03-17T00:47:23.381Z,92.63
2018-03-17T00:49:50.985Z,91.25
2018-03-17T00:52:18.766Z,91.91
2018-03-17T00:54:46.279Z,90.55
2018-03-17T00:57:13.895Z,90.38
2018-03-17T00:59:41.641Z,91.87
2018-03-17T01:02:09.251Z,94.03
2018-03-17T01:04:36.925Z,93.68
2018-03-17T01:07:04.654Z,93.28
2018-03-17T01:09:32.365Z,92.55
2018-03-17T01:11:59.996Z,92.06
2018-03-17T01:14:27.536Z,91.78
2018-03-17T01:16:55.241Z,91.73
2018-03-17T01:19:22.976Z,92.67
2018-03-17T01:21:50.522Z,92.94
2018-03-17T01:24:18.044Z,93.23
2018-03-17T01:26:45.606Z,92.50
2018-03-17T01:29:13.742Z,92.56
2018-03-17T01:31:41.426Z,93.08
2018-03-17T01:34:09.104Z,93.62
2018-03-17T01:36:36.800Z,94.11
2018-03-17T01:39:04.326Z,94.04
2018-03-17T01:41:31.930Z,93.84
2018-03-17T01:43:59.576Z,93.26
2018-03-17T01:46:27.216Z,92.84
2018-03-17T01:48:54.795Z,93.28
2018-03-17T01:51:22.339Z,92.32
2018-03-17T01:53:49.881Z,92.61
2018-03-17T01:56:17.391Z,91.91
2018-03-17T01:58:45.139Z,91.53
2018-03-17T02:01:12.735Z,90.91
2018-03-17T02:03:40.716Z,90.36
2018-03-17T02:06:08.380Z,91.45
2018-03-17T02:08:36.085Z,92.38
2018-03-17T02:11:04.575Z,92.19
2018-03-17T02:13:32.316Z,92.25
2018-03-17T02:15:59.963Z,91.72
2018-03-17T02:18:27.497Z,92.89
2018-03-17T02:20:55.370Z,93.21
2018-03-17T02:23:23.011Z,93.84
2018-03-17T02:25:50.546Z,92.53
2018-03-17T02:28:18.085Z,92.44
2018-03-17T02:30:45.771Z,92.23
2018-03-17T02:33:13.292Z,92.62
2018-03-17T02:35:40.960Z,92.08
2018-03-17T02:38:08.494Z,92.64
2018-03-17T02:40:36.160Z,93.12
2018-03-17T02:43:03.880Z,91.92
2018-03-17T02:45:31.583Z,92.22
2018-03-17T02:47:59.261Z,93.00
2018-03-17T02:50:26.886Z,92.77
2018-03-17T02:52:54.693Z,94.33
2018-03-17T02:55:22.273Z,93.79
2018-03-17T02:57:49.860Z,93.34
2018-03-17T03:00:17.515Z,93.74
2018-03-17T03:02:46.020Z,93.44
2018-03-17T03:05:14.253Z,93.47
2018-03-17T03:07:42.353Z,93.38
2018-03-17T03:10:10.121Z,92.97
2018-03-17T03:12:37.815Z,92.32
2018-03-17T03:15:05.616Z,91.73
2018-03-17T03:17:33.266Z,89.98
2018-03-17T03:20:00.810Z,89.12
2018-03-17T03:22:28.345Z,91.67
2018-03-17T03:24:56.016Z,92.41
2018-03-17T03:27:23.627Z,93.26
2018-03-17T03:29:51.379Z,93.76
2018-03-17T03:32:18.910Z,93.69
2018-03-17T03:34:46.761Z,93.33
2018-03-17T03:37:14.607Z,92.15
2018-03-17T03:39:42.247Z,90.91
2018-03-17T03:42:09.884Z,89.98
2018-03-17T03:44:37.583Z,89.68
2018-03-17T03:47:05.267Z,90.07
2018-03-17T03:49:32.800Z,91.07
2018-03-17T03:52:00.335Z,90.49
2018-03-17T03:54:27.866Z,89.91
2018-03-17T03:56:55.425Z,89.35
2018-03-17T03:59:23.172Z,88.69
2018-03-17T04:01:50.991Z,89.95
2018-03-17T04:04:18.596Z,91.12
2018-03-17T04:06:46.217Z,89.83
2018-03-17T04:09:13.785Z,89.18
2018-03-17T04:11:41.311Z,89.17
2018-03-17T04:14:09.536Z,89.30
2018-03-17T04:16:37.211Z,90.21
2018-03-17T04:19:04.907Z,91.00
2018-03-17T04:21:32.484Z,91.52
2018-03-17T04:24:00.075Z,92.47
2018-03-17T04:26:27.682Z,92.06
2018-03-17T04:28:55.240Z,90.85
2018-03-17T04:31:22.936Z,90.89
2018-03-17T04:33:50.735Z,90.04
2018-03-17T04:36:18.566Z,88.75
2018-03-17T04:38:46.311Z,88.40
2018-03-17T04:41:13.847Z,88.58
2018-03-17T04:43:41.445Z,87.75
2018-03-17T04:46:09.355Z,89.24
2018-03-17T04:48:37.092Z,90.35
2018-03-17T04:51:04.620Z,91.74
2018-03-17T04:53:32.251Z,91.46
2018-03-17T04:55:59.840Z,90.46
2018-03-17T04:58:27.354Z,89.30
2018-03-17T05:00:54.898Z,88.71
2018-03-17T05:03:22.775Z,88.32
2018-03-17T05:05:50.449Z,87.96
2018-03-17T05:08:18.200Z,88.05
2018-03-17T05:10:45.857Z,88.38
2018-03-17T05:13:13.554Z,88.23
2018-03-17T05:15:41.081Z,87.65
2018-03-17T05:18:09.162Z,87.64
2018-03-17T05:20:36.696Z,88.25
2018-03-17T05:23:04.230Z,87.72
2018-03-17T05:25:32.039Z,87.05
2018-03-17T05:27:59.551Z,87.38
2018-03-17T05:30:27.324Z,87.78
2018-03-17T05:32:54.876Z,88.23
2018-03-17T05:35:22.485Z,88.36
2018-03-17T05:37:50.204Z,89.27
2018-03-17T05:40:17.745Z,91.63
2018-03-17T05:42:45.336Z,92.42
2018-03-17T05:45:13.142Z,92.54
2018-03-17T05:47:40.641Z,91.96
2018-03-17T05:50:08.239Z,90.84
2018-03-17T05:52:35.842Z,90.81
2018-03-17T05:55:03.475Z,90.09
2018-03-17T05:57:31.024Z,90.09
2018-03-17T05:59:58.676Z,90.06
2018-03-17T06:02:26.207Z,89.39
2018-03-17T06:04:53.791Z,89.06
2018-03-17T06:07:21.426Z,88.84
2018-03-17T06:09:48.976Z,88.60
2018-03-17T06:12:16.774Z,87.92
2018-03-17T06:14:44.307Z,87.80
2018-03-17T06:17:11.852Z,88.47
2018-03-17T06:19:39.375Z,88.87
2018-03-17T06:22:06.934Z,90.21
2018-03-17T06:24:34.475Z,89.97
2018-03-17T06:27:02.060Z,90.53
2018-03-17T06:29:29.620Z,91.05
2018-03-17T06:31:57.431Z,91.88
2018-03-17T06:34:24.960Z,92.38
2018-03-17T06:36:52.586Z,92.18
2018-03-17T06:39:20.114Z,92.06
2018-03-17T06:41:47.658Z,91.27
2018-03-17T06:44:15.221Z,92.12
2018-03-17T06:46:42.801Z,92.45
2018-03-17T06:49:10.481Z,92.93
2018-03-17T06:51:38.036Z,92.99
2018-03-17T06:54:05.707Z,92.26
2018-03-17T06:56:33.289Z,91.75
2018-03-17T06:59:00.901Z,91.62
2018-03-17T07:01:28.480Z,91.97
2018-03-17T07:03:56.036Z,92.23
2018-03-17T07:06:23.675Z,91.72
2018-03-17T07:08:51.209Z,91.82
2018-03-17T07:11:18.774Z,92.52
2018-03-17T07:13:46.507Z,91.98
2018-03-17T07:16:14.341Z,90.90
2018-03-17T07:18:42.071Z,89.98
2018-03-17T07:21:09.689Z,91.25
2018-03-17T07:23:37.451Z,91.17
2018-03-17T07:26:05.131Z,91.78
2018-03-17T07:28:32.762Z,90.95
2018-03-17T07:31:00.449Z,90.83
2018-03-17T07:33:27.978Z,90.61
2018-03-17T07:35:55.636Z,89.42
2018-03-17T07:38:23.212Z,88.25
2018-03-17T07:40:51.014Z,88.05
2018-03-17T07:43:18.721Z,87.68
2018-03-17T07:45:46.251Z,87.49
2018-03-17T07:48:14.048Z,87.88
2018-03-17T07:50:41.686Z,87.49
2018-03-17T07:53:09.761Z,88.58
2018-03-17T07:55:37.302Z,89.01
2018-03-17T07:58:05.094Z,89.21
2018-03-17T08:00:32.745Z,88.71
2018-03-17T08:03:00.372Z,88.58
2018-03-17T08:05:27.970Z,88.58
2018-03-17T08:07:55.522Z,87.69
2018-03-17T08:10:23.387Z,86.19
2018-03-17T08:12:51.057Z,85.93
2018-03-17T08:15:19.022Z,86.29
2018-03-17T08:17:46.545Z,85.93
2018-03-17T08:20:14.181Z,85.89
2018-03-17T08:22:42.298Z,87.16
2018-03-17T08:25:09.991Z,87.12
2018-03-17T08:27:37.629Z,85.95
2018-03-17T08:30:06.112Z,86.58
2018-03-17T08:32:33.776Z,86.43
2018-03-17T08:35:01.345Z,84.93
2018-03-17T08:37:28.977Z,84.93
2018-03-17T08:39:56.556Z,85.32
2018-03-17T08:42:24.406Z,86.21
2018-03-17T08:44:52.092Z,84.39
2018-03-17T08:47:19.716Z,83.69
2018-03-17T08:49:47.521Z,83.14
2018-03-17T08:52:20.288Z,82.79
2018-03-17T08:54:48.071Z,82.24
2018-03-17T08:57:15.658Z,81.97
2018-03-17T08:59:43.557Z,80.13
2018-03-17T09:02:11.227Z,80.26
2018-03-17T09:04:38.952Z,80.50
2018-03-17T09:07:06.500Z,80.27
2018-03-17T09:09:35.116Z,80.05
2018-03-17T09:12:02.655Z,79.01
2018-03-17T09:14:30.278Z,78.29
2018-03-17T09:16:57.817Z,78.97
2018-03-17T09:19:25.400Z,78.62
2018-03-17T09:21:53.172Z,77.75
2018-03-17T09:24:20.765Z,78.61
2018-03-17T09:26:49.142Z,78.09
2018-03-17T09:29:16.758Z,79.80
2018-03-17T09:31:44.293Z,80.22
2018-03-17T09:34:11.991Z,79.20
2018-03-17T09:36:39.598Z,79.28
2018-03-17T09:39:07.309Z,79.43
2018-03-17T09:41:35.262Z,79.36
2018-03-17T09:44:02.830Z,78.86
2018-03-17T09:46:30.496Z,78.17
2018-03-17T09:48:58.261Z,79.28
2018-03-17T09:51:26.737Z,79.62
2018-03-17T09:53:54.420Z,79.43
2018-03-17T09:56:22.076Z,79.90
2018-03-17T09:58:49.830Z,78.79
2018-03-17T10:01:17.437Z,77.69
2018-03-17T10:03:45.595Z,78.57
2018-03-17T10:06:13.177Z,78.28
2018-03-17T10:08:40.776Z,79.21
2018-03-17T10:11:09.131Z,78.94
2018-03-17T10:13:36.681Z,78.35
2018-03-17T10:16:04.377Z,77.97
2018-03-17T10:18:31.977Z,78.25
2018-03-17T10:20:59.598Z,78.54
2018-03-17T10:23:27.393Z,78.99
2018-03-17T10:25:55.115Z,77.71
2018-03-17T10:28:22.867Z,77.75
2018-03-17T10:30:50.448Z,77.91
2018-03-17T10:33:17.988Z,76.73
2018-03-17T10:35:45.657Z,77.48
2018-03-17T10:38:13.212Z,76.09
2018-03-17T10:40:40.837Z,75.31
2018-03-17T10:43:08.591Z,76.17
2018-03-17T10:45:36.274Z,77.76
2018-03-17T10:48:04.006Z,77.30
2018-03-17T10:50:31.593Z,75.99
2018-03-17T10:52:59.342Z,75.98
2018-03-17T10:55:27.035Z,74.70
2018-03-17T10:57:54.576Z,76.46
2018-03-17T11:00:27.673Z,77.40
2018-03-17T11:02:55.246Z,76.18
2018-03-17T11:05:23.513Z,75.75
2018-03-17T11:07:52.002Z,75.52
2018-03-17T11:10:20.145Z,75.68
2018-03-17T11:12:47.768Z,77.98
2018-03-17T11:15:15.526Z,77.74
2018-03-17T11:17:43.087Z,77.29
2018-03-17T11:20:10.710Z,76.64
2018-03-17T11:22:38.373Z,76.45
2018-03-17T11:25:06.082Z,77.51
2018-03-17T11:27:33.736Z,77.49
2018-03-17T11:30:01.557Z,75.68
2018-03-17T11:32:29.242Z,76.42
2018-03-17T11:34:56.957Z,76.73
2018-03-17T11:37:24.575Z,74.29
2018-03-17T11:39:52.250Z,75.27
2018-03-17T11:42:19.775Z,74.70
2018-03-17T11:44:47.447Z,74.69
2018-03-17T11:47:15.080Z,74.93
2018-03-17T11:49:42.778Z,74.86
2018-03-17T11:52:10.514Z,74.31
2018-03-17T11:54:38.236Z,74.64
2018-03-17T11:57:05.995Z,76.00
2018-03-17T11:59:33.602Z,76.51
2018-03-17T12:02:01.207Z,74.61
2018-03-17T12:04:28.858Z,74.41
2018-03-17T12:06:56.693Z,74.66
2018-03-17T12:09:24.245Z,74.16
2018-03-17T12:11:51.991Z,73.76
2018-03-17T12:14:19.680Z,73.10
2018-03-17T12:16:47.366Z,74.49
2018-03-17T12:19:14.906Z,73.61
2018-03-17T12:21:42.551Z,73.86
2018-03-17T12:24:10.146Z,73.78
2018-03-17T12:26:37.826Z,74.11
2018-03-17T12:29:05.578Z,74.20
2018-03-17T12:31:33.216Z,74.56
2018-03-17T12:34:00.772Z,74.51
2018-03-17T12:36:28.527Z,76.30
2018-03-17T12:38:56.148Z,76.49
2018-03-17T12:41:24.071Z,75.64
2018-03-17T12:43:51.608Z,76.05
2018-03-17T12:46:19.163Z,75.19
2018-03-17T12:48:46.757Z,74.80
2018-03-17T12:51:14.696Z,74.63
2018-03-17T12:53:42.333Z,74.83
2018-03-17T12:56:09.908Z,75.23
2018-03-17T12:58:38.068Z,75.47
2018-03-17T13:01:05.811Z,75.65
2018-03-17T13:03:33.520Z,75.94
2018-03-17T13:06:01.196Z,75.92
2018-03-17T13:08:28.751Z,76.27
2018-03-17T13:10:56.454Z,76.08
2018-03-17T13:13:24.766Z,76.31
2018-03-17T13:15:52.338Z,77.14
2018-03-17T13:18:20.106Z,76.75
2018-03-17T13:20:47.880Z,75.63
2018-03-17T13:23:16.320Z,76.29
2018-03-17T13:25:43.912Z,76.60
2018-03-17T13:28:26.884Z,76.26
2018-03-17T13:30:54.663Z,75.57
2018-03-17T13:33:22.721Z,76.02
2018-03-17T13:36:02.502Z,76.81
2018-03-17T13:38:30.064Z,76.33
2018-03-17T13:40:57.623Z,76.13
2018-03-17T13:43:26.256Z,77.33
2018-03-17T13:45:55.011Z,76.53
2018-03-17T13:48:22.661Z,75.92
2018-03-17T13:50:50.305Z,76.04
2018-03-17T13:53:17.911Z,76.27
2018-03-17T13:55:45.571Z,75.92
2018-03-17T13:58:13.336Z,75.25
2018-03-17T14:00:42.892Z,75.46
2018-03-17T14:03:11.499Z,75.19
2018-03-17T14:05:39.271Z,75.97
2018-03-17T14:08:07.139Z,76.14
2018-03-17T14:10:34.785Z,76.52
2018-03-17T14:13:02.375Z,76.60
2018-03-17T14:15:30.035Z,76.05
2018-03-17T14:17:57.724Z,77.38
2018-03-17T14:20:25.493Z,77.36
2018-03-17T14:22:53.197Z,77.68
2018-03-17T14:25:20.760Z,78.06
2018-03-17T14:27:48.439Z,77.36
2018-03-17T14:30:16.239Z,77.61
2018-03-17T14:32:43.837Z,76.91
2018-03-17T14:35:11.747Z,76.79
2018-03-17T14:37:39.414Z,77.59
2018-03-17T14:40:07.112Z,78.19
2018-03-17T14:42:34.821Z,77.57
2018-03-17T14:45:02.457Z,76.88
2018-03-17T14:47:30.200Z,77.14
2018-03-17T14:49:58.600Z,76.90
2018-03-17T14:52:26.330Z,78.07
2018-03-17T14:54:53.880Z,77.68
2018-03-17T14:57:21.452Z,77.85
2018-03-17T14:59:49.227Z,77.36
2018-03-17T15:02:16.880Z,77.11
2018-03-17T15:04:44.598Z,77.40
2018-03-17T15:07:12.228Z,76.54
2018-03-17T15:09:39.844Z,76.59
2018-03-17T15:12:07.556Z,76.51
2018-03-17T15:14:35.172Z,77.09
2018-03-17T15:17:02.978Z,76.66
2018-03-17T15:19:30.651Z,76.54
2018-03-17T15:21:58.492Z,77.46
2018-03-17T15:24:26.081Z,76.94
2018-03-17T15:26:53.897Z,76.44
2018-03-17T15:29:21.532Z,77.14
2018-03-17T15:31:49.192Z,77.37
2018-03-17T15:34:16.786Z,77.08
2018-03-17T15:36:44.586Z,76.51
2018-03-17T15:39:12.473Z,76.70
2018-03-17T15:41:40.023Z,76.48
2018-03-17T15:44:07.596Z,75.73
2018-03-17T15:46:35.157Z,75.80
2018-03-17T15:49:06.710Z,76.02
2018-03-17T15:51:34.371Z,76.44
2018-03-17T15:54:02.091Z,76.66
2018-03-17T15:56:29.755Z,76.73
2018-03-17T15:58:57.466Z,75.95
2018-03-17T16:01:25.025Z,76.18
2018-03-17T16:03:52.670Z,76.23
2018-03-17T16:06:21.040Z,76.89
2018-03-17T16:08:48.701Z,75.79
2018-03-17T16:11:16.236Z,76.27
2018-03-17T16:13:43.806Z,76.31
2018-03-17T16:16:11.459Z,76.13
2018-03-17T16:18:39.030Z,76.50
2018-03-17T16:21:06.856Z,75.54
2018-03-17T16:23:34.446Z,75.85
2018-03-17T16:26:02.213Z,75.18
2018-03-17T16:28:29.893Z,75.67
2018-03-17T16:30:57.568Z,76.07
2018-03-17T16:33:25.222Z,75.22
2018-03-17T16:35:52.791Z,75.47
2018-03-17T16:38:20.337Z,74.45
2018-03-17T16:40:48.040Z,74.47
2018-03-17T16:43:15.591Z,75.20
2018-03-17T16:45:43.120Z,75.36
2018-03-17T16:48:10.721Z,75.76
2018-03-17T16:50:38.618Z,75.71
2018-03-17T16:53:06.362Z,75.34
2018-03-17T16:55:34.002Z,75.46
2018-03-17T16:58:01.616Z,75.50
2018-03-17T17:00:29.192Z,75.84
2018-03-17T17:02:56.745Z,75.09
2018-03-17T17:05:24.336Z,75.00
2018-03-17T17:07:51.999Z,74.08
2018-03-17T17:10:19.566Z,74.08
2018-03-17T17:12:47.276Z,74.60
2018-03-17T17:15:14.866Z,73.79
2018-03-17T17:17:42.525Z,74.61
2018-03-17T17:20:10.251Z,74.34
2018-03-17T17:22:37.965Z,73.56
2018-03-17T17:25:05.739Z,73.58
2018-03-17T17:27:33.315Z,73.20
2018-03-17T17:30:01.141Z,73.99
2018-03-17T17:32:28.745Z,73.59
2018-03-17T17:34:56.336Z,74.00
2018-03-17T17:37:25.557Z,73.61
2018-03-17T17:39:53.105Z,73.54
2018-03-17T17:42:20.716Z,72.55
2018-03-17T17:44:48.281Z,73.14
2018-03-17T17:47:16.075Z,73.24
2018-03-17T17:49:43.682Z,72.90
2018-03-17T17:52:11.461Z,74.18
2018-03-17T17:54:39.040Z,73.60
2018-03-17T17:57:06.785Z,73.32
2018-03-17T17:59:34.455Z,73.13
2018-03-17T18:02:02.052Z,72.55
2018-03-17T18:04:29.802Z,72.62
2018-03-17T18:06:58.044Z,73.06
2018-03-17T18:09:25.833Z,73.03
2018-03-17T18:11:53.516Z,72.77
2018-03-17T18:14:21.138Z,71.96
2018-03-17T18:16:49.131Z,73.46
2018-03-17T18:19:16.676Z,72.84
2018-03-17T18:21:44.280Z,72.79
2018-03-17T18:24:11.841Z,72.65
2018-03-17T18:26:39.581Z,73.29
2018-03-17T18:29:07.140Z,73.69
2018-03-17T18:31:34.727Z,73.80
2018-03-17T18:34:02.293Z,74.12
2018-03-17T18:36:30.952Z,75.31
2018-03-17T18:38:58.720Z,74.08
2018-03-17T18:41:26.275Z,74.58
2018-03-17T18:43:53.872Z,73.82
2018-03-17T18:46:21.613Z,73.56
2018-03-17T18:48:50.027Z,74.37
2018-03-17T18:51:17.898Z,74.23
2018-03-17T18:53:45.570Z,73.77
2018-03-17T18:56:13.122Z,74.02
2018-03-17T18:58:40.787Z,73.58
2018-03-17T19:01:08.371Z,74.02
2018-03-17T19:03:36.181Z,74.15
2018-03-17T19:06:03.753Z,74.09
2018-03-17T19:08:31.473Z,74.25
2018-03-17T19:10:59.015Z,74.45
2018-03-17T19:13:26.575Z,75.12
2018-03-17T19:15:54.235Z,75.42
2018-03-17T19:18:21.912Z,74.73
2018-03-17T19:20:49.520Z,74.57
2018-03-17T19:23:17.217Z,75.45
2018-03-17T19:25:44.751Z,75.72
2018-03-17T19:28:12.309Z,75.61
2018-03-17T19:30:40.005Z,75.13
2018-03-17T19:33:07.557Z,74.60
2018-03-17T19:35:35.195Z,74.89
2018-03-17T19:38:02.861Z,74.56
2018-03-17T19:40:30.480Z,75.46
2018-03-17T19:42:58.301Z,75.62
2018-03-17T19:45:26.016Z,76.90
2018-03-17T19:47:53.736Z,77.55
2018-03-17T19:50:21.594Z,78.16
2018-03-17T19:52:49.362Z,78.54
2018-03-17T19:55:17.130Z,78.45
2018-03-17T19:57:44.961Z,79.24
2018-03-17T20:00:12.705Z,78.67
2018-03-17T20:02:40.430Z,79.39
2018-03-17T20:05:08.416Z,80.25
2018-03-17T20:07:36.141Z,80.09
2018-03-17T20:10:03.796Z,79.52
2018-03-17T20:12:31.387Z,78.28
2018-03-17T20:14:59.026Z,78.79
2018-03-17T20:17:26.797Z,78.32
2018-03-17T20:19:54.541Z,79.07
2018-03-17T20:22:22.277Z,79.10
2018-03-17T20:24:50.172Z,79.67
2018-03-17T20:27:17.882Z,78.75
2018-03-17T20:29:45.451Z,78.69
2018-03-17T20:32:13.048Z,78.89
2018-03-17T20:34:40.916Z,79.66
2018-03-17T20:37:08.536Z,78.84
2018-03-17T20:39:36.135Z,79.11
2018-03-17T20:42:03.812Z,79.14
2018-03-17T20:44:31.681Z,79.50
2018-03-17T20:46:59.235Z,80.57
2018-03-17T20:49:26.847Z,80.46
2018-03-17T20:51:54.586Z,81.22
2018-03-17T20:54:22.295Z,81.61
2018-03-17T20:56:49.961Z,82.53
2018-03-17T20:59:17.884Z,82.63
2018-03-17T21:01:45.518Z,82.73
2018-03-17T21:04:13.368Z,82.64
2018-03-17T21:06:41.271Z,84.17
2018-03-17T21:09:08.981Z,85.69
2018-03-17T21:11:37.260Z,87.07
2018-03-17T21:14:05.015Z,86.79
2018-03-17T21:16:35.243Z,87.98
2018-03-17T21:19:03.167Z,88.03
2018-03-17T21:21:30.771Z,88.39
2018-03-17T21:23:58.349Z,88.90
2018-03-17T21:26:26.122Z,89.18
2018-03-17T21:28:53.796Z,88.66
2018-03-17T21:31:22.371Z,88.95
2018-03-17T21:33:50.141Z,89.12
2018-03-17T21:36:17.775Z,88.96
2018-03-17T21:38:45.351Z,89.24
2018-03-17T21:41:13.122Z,88.94
2018-03-17T21:43:40.978Z,88.98
2018-03-17T21:46:08.657Z,89.96
2018-03-17T21:48:36.281Z,87.63
2018-03-17T21:51:03.931Z,87.21
2018-03-17T21:53:31.592Z,89.16
2018-03-17T21:55:59.270Z,89.03
2018-03-17T21:58:26.835Z,87.94
2018-03-17T22:00:54.933Z,88.16
2018-03-17T22:03:22.834Z,88.73
2018-03-17T22:05:50.801Z,89.86
2018-03-17T22:08:18.560Z,88.98
2018-03-17T22:10:46.333Z,89.31
2018-03-17T22:13:13.977Z,88.64
2018-03-17T22:15:41.936Z,87.78
2018-03-17T22:18:09.954Z,87.95
2018-03-17T22:20:37.517Z,88.46
2018-03-17T22:23:05.230Z,88.53
2018-03-17T22:25:32.941Z,88.01
2018-03-17T22:28:00.560Z,87.99
2018-03-17T22:30:28.111Z,88.98
2018-03-17T22:32:55.890Z,89.77
2018-03-17T22:35:23.562Z,89.79
2018-03-17T22:37:52.691Z,88.61
2018-03-17T22:40:20.351Z,89.28
2018-03-17T22:42:48.521Z,89.68
2018-03-17T22:45:16.216Z,89.80
2018-03-17T22:47:43.835Z,89.88
2018-03-17T22:50:11.735Z,88.74
2018-03-17T22:52:39.373Z,88.82
2018-03-17T22:55:07.639Z,88.87
2018-03-17T22:57:35.252Z,88.54
2018-03-17T23:00:02.946Z,89.94
2018-03-17T23:02:30.737Z,89.12
2018-03-17T23:04:58.639Z,89.60
2018-03-17T23:07:26.244Z,88.34
2018-03-17T23:09:53.810Z,89.03
2018-03-17T23:12:21.888Z,89.19
2018-03-17T23:14:49.657Z,88.84
2018-03-17T23:17:17.485Z,88.84
2018-03-17T23:19:45.117Z,89.54
2018-03-17T23:22:12.839Z,90.26
2018-03-17T23:24:40.672Z,91.58
2018-03-17T23:27:08.252Z,90.53
2018-03-17T23:29:36.855Z,91.27
2018-03-17T23:32:04.422Z,90.25
2018-03-17T23:34:31.987Z,90.22
2018-03-17T23:37:00.441Z,89.66
2018-03-17T23:39:28.021Z,89.09
2018-03-17T23:41:55.735Z,89.53
2018-03-17T23:44:23.534Z,89.82
2018-03-17T23:46:51.210Z,90.16
2018-03-17T23:49:19.070Z,88.87
2018-03-17T23:51:47.426Z,89.21
2018-03-17T23:54:15.203Z,89.60
2018-03-17T23:56:42.854Z,90.33
2018-03-17T23:59:10.732Z,90.63
